createdAt,value
2022-10-05T00:01:21.576Z,1.67
2022-10-05T00:03:50.032Z,1.80
2022-10-05T00:06:18.147Z,1.85
2022-10-05T00:08:46.095Z,1.90
2022-10-05T00:11:15.456Z,1.90
2022-10-05T00:13:43.532Z,1.50
2022-10-05T00:16:18.122Z,1.53
2022-10-05T00:18:49.520Z,1.80
2022-10-05T00:21:22.571Z,1.70
2022-10-05T00:23:51.309Z,1.40
2022-10-05T00:26:22.629Z,1.30
2022-10-05T00:28:50.744Z,1.33
2022-10-05T00:31:21.997Z,1.30
2022-10-05T00:33:50.424Z,1.67
2022-10-05T00:36:18.856Z,1.58
2022-10-05T00:38:46.761Z,1.70
2022-10-05T00:41:21.773Z,1.50
2022-10-05T00:44:03.281Z,1.50
2022-10-05T00:46:42.041Z,1.60
2022-10-05T00:49:23.758Z,1.55
2022-10-05T00:51:59.793Z,1.70
2022-10-05T00:54:35.145Z,1.40
2022-10-05T00:57:22.171Z,1.60
2022-10-05T00:59:59.322Z,1.80
2022-10-05T01:02:37.088Z,1.58
2022-10-05T01:05:11.807Z,1.50
2022-10-05T01:07:48.333Z,1.20
2022-10-05T01:10:23.963Z,1.50
2022-10-05T01:12:59.604Z,1.60
2022-10-05T01:15:33.961Z,1.90
2022-10-05T01:18:11.737Z,1.67
2022-10-05T01:20:52.395Z,1.90
2022-10-05T01:23:55.414Z,1.50
2022-10-05T01:26:54.638Z,1.40
2022-10-05T01:29:27.287Z,1.77
2022-10-05T01:32:00.997Z,2.10
2022-10-05T01:34:37.648Z,1.90
2022-10-05T01:37:12.119Z,1.85
2022-10-05T01:39:47.066Z,2.55
2022-10-05T01:42:24.546Z,3.20
2022-10-05T01:45:00.582Z,2.97
2022-10-05T01:47:33.809Z,2.90
2022-10-05T01:50:04.547Z,3.20
2022-10-05T01:52:44.528Z,3.80
2022-10-05T01:55:20.935Z,3.70
2022-10-05T01:58:03.916Z,4.18
2022-10-05T02:00:38.041Z,4.30
2022-10-05T02:03:12.782Z,4.07
2022-10-05T02:05:45.438Z,4.30
2022-10-05T02:08:18.752Z,4.20
2022-10-05T02:10:52.452Z,4.55
2022-10-05T02:13:26.393Z,4.68
2022-10-05T02:16:01.591Z,4.60
2022-10-05T02:18:35.068Z,4.15
2022-10-05T02:21:04.057Z,4.10
2022-10-05T02:23:36.604Z,4.50
2022-10-05T02:26:05.809Z,4.10
2022-10-05T02:28:38.818Z,4.50
2022-10-05T02:31:11.398Z,4.20
2022-10-05T02:33:40.370Z,5.00
2022-10-05T02:36:14.967Z,4.65
2022-10-05T02:38:56.568Z,5.07
2022-10-05T02:41:32.131Z,4.50
2022-10-05T02:44:09.936Z,4.95
2022-10-05T02:46:49.926Z,4.97
2022-10-05T02:49:28.607Z,4.53
2022-10-05T02:52:00.909Z,4.80
2022-10-05T02:54:43.710Z,5.43
2022-10-05T02:57:17.625Z,5.70
2022-10-05T02:59:53.096Z,4.90
2022-10-05T03:02:25.489Z,4.83
2022-10-05T03:05:03.317Z,5.18
2022-10-05T03:07:36.070Z,5.18
2022-10-05T03:10:13.282Z,5.10
2022-10-05T03:12:50.481Z,4.88
2022-10-05T03:15:43.825Z,4.72
2022-10-05T03:18:28.550Z,4.90
2022-10-05T03:21:14.025Z,4.85
2022-10-05T03:23:57.668Z,4.30
2022-10-05T03:26:36.992Z,4.88
2022-10-05T03:29:15.807Z,4.85
2022-10-05T03:31:46.925Z,4.03
2022-10-05T03:34:21.993Z,4.68
2022-10-05T03:36:56.771Z,4.80
2022-10-05T03:39:32.470Z,4.28
2022-10-05T03:42:09.333Z,4.60
2022-10-05T03:44:48.011Z,4.10
2022-10-05T03:47:23.415Z,3.93
2022-10-05T03:50:11.646Z,3.50
2022-10-05T03:52:44.157Z,4.10
2022-10-05T03:55:21.477Z,4.03
2022-10-05T03:57:51.261Z,4.00
2022-10-05T04:00:23.118Z,4.40
2022-10-05T04:02:55.646Z,4.50
2022-10-05T04:05:29.355Z,3.97
2022-10-05T04:08:01.215Z,4.80
2022-10-05T04:10:33.926Z,3.90
2022-10-05T04:13:07.702Z,3.90
2022-10-05T04:15:41.280Z,3.72
2022-10-05T04:18:26.658Z,3.28
2022-10-05T04:21:01.073Z,3.08
2022-10-05T04:23:40.544Z,3.33
2022-10-05T04:26:12.482Z,3.00
2022-10-05T04:28:49.813Z,3.30
2022-10-05T04:31:29.140Z,3.35
2022-10-05T04:34:05.509Z,2.93
2022-10-05T04:36:40.717Z,3.40
2022-10-05T04:39:19.029Z,2.97
2022-10-05T04:42:01.432Z,2.42
2022-10-05T04:44:44.501Z,2.35
2022-10-05T04:47:25.735Z,2.78
2022-10-05T04:50:10.839Z,2.67
2022-10-05T04:52:52.119Z,2.10
2022-10-05T04:55:29.109Z,2.30
2022-10-05T04:58:05.065Z,1.90
2022-10-05T05:00:43.010Z,1.80
2022-10-05T05:03:33.095Z,1.50
2022-10-05T05:06:17.314Z,1.60
2022-10-05T05:09:11.145Z,1.30
2022-10-05T05:11:47.495Z,1.20
2022-10-05T05:14:33.123Z,1.40
2022-10-05T05:17:13.883Z,1.35
2022-10-05T05:19:49.897Z,1.10
2022-10-05T05:22:26.014Z,1.30
2022-10-05T05:25:13.143Z,1.40
2022-10-05T05:27:45.740Z,1.20
2022-10-05T05:30:21.215Z,1.00
2022-10-05T05:33:01.829Z,1.00
2022-10-05T05:35:45.411Z,0.90
2022-10-05T05:38:27.639Z,1.10
2022-10-05T05:41:09.436Z,1.02
2022-10-05T05:43:52.994Z,0.90
2022-10-05T05:46:39.112Z,1.00
2022-10-05T05:49:18.971Z,0.85
2022-10-05T05:51:51.395Z,1.40
2022-10-05T05:54:27.592Z,1.00
2022-10-05T05:57:08.033Z,1.00
2022-10-05T06:00:00.531Z,0.90
2022-10-05T06:02:35.260Z,0.85
2022-10-05T06:05:23.085Z,1.20
2022-10-05T06:07:53.233Z,0.80
2022-10-05T06:10:30.355Z,1.10
2022-10-05T06:13:04.761Z,0.93
2022-10-05T06:15:37.198Z,1.30
2022-10-05T06:18:10.916Z,0.90
2022-10-05T06:20:42.791Z,1.02
2022-10-05T06:23:17.388Z,1.30
2022-10-05T06:25:55.598Z,1.20
2022-10-05T06:28:27.029Z,1.33
2022-10-05T06:31:04.408Z,1.40
2022-10-05T06:33:47.026Z,1.20
2022-10-05T06:36:24.701Z,1.50
2022-10-05T06:39:08.751Z,1.50
2022-10-05T06:41:48.086Z,1.10
2022-10-05T06:44:23.086Z,1.20
2022-10-05T06:46:59.224Z,1.20
2022-10-05T06:49:32.301Z,1.38
2022-10-05T06:52:09.939Z,1.40
2022-10-05T06:54:52.340Z,1.48
2022-10-05T06:57:39.985Z,1.40
2022-10-05T07:00:18.680Z,1.50
2022-10-05T07:02:54.843Z,1.70
2022-10-05T07:05:56.109Z,1.70
2022-10-05T07:08:45.497Z,1.50
2022-10-05T07:11:24.557Z,1.58
2022-10-05T07:14:06.632Z,1.45
2022-10-05T07:16:46.296Z,1.63
2022-10-05T07:19:25.925Z,1.63
2022-10-05T07:22:15.669Z,1.60
2022-10-05T07:25:01.858Z,1.50
2022-10-05T07:27:43.627Z,1.60
2022-10-05T07:30:14.793Z,1.43
2022-10-05T07:32:57.026Z,1.40
2022-10-05T07:35:57.444Z,1.40
2022-10-05T07:38:36.392Z,1.40
2022-10-05T07:41:08.776Z,1.70
2022-10-05T07:44:01.488Z,1.60
2022-10-05T07:46:44.284Z,1.40
2022-10-05T07:49:22.556Z,1.58
2022-10-05T07:51:53.861Z,1.58
2022-10-05T07:54:25.369Z,1.60
2022-10-05T07:57:01.404Z,1.70
2022-10-05T07:59:35.648Z,1.95
2022-10-05T08:02:16.379Z,2.00
2022-10-05T08:04:55.379Z,1.90
2022-10-05T08:10:04.224Z,1.80
2022-10-05T08:12:35.774Z,2.20
2022-10-05T08:15:10.624Z,2.00
2022-10-05T08:17:47.757Z,2.00
2022-10-05T08:20:38.325Z,2.20
2022-10-05T08:23:16.930Z,1.70
2022-10-05T08:25:52.392Z,2.05
2022-10-05T08:28:24.176Z,2.20
2022-10-05T08:30:57.821Z,1.90
2022-10-05T08:33:28.333Z,2.20
2022-10-05T08:36:07.452Z,2.20
2022-10-05T08:38:36.093Z,2.10
2022-10-05T08:41:52.659Z,2.38
2022-10-05T08:44:57.066Z,1.92
2022-10-05T08:47:49.812Z,2.20
2022-10-05T08:50:33.069Z,2.55
2022-10-05T08:53:29.364Z,2.35
2022-10-05T08:56:11.153Z,2.40
2022-10-05T08:59:15.890Z,2.20
2022-10-05T09:02:04.967Z,2.22
2022-10-05T09:04:43.457Z,1.98
2022-10-05T09:07:17.762Z,1.80
2022-10-05T09:10:07.405Z,1.90
2022-10-05T09:13:02.848Z,1.60
2022-10-05T09:15:48.433Z,2.00
2022-10-05T09:18:46.497Z,1.70
2022-10-05T09:21:24.677Z,1.60
2022-10-05T09:24:06.377Z,1.50
2022-10-05T09:26:46.995Z,1.65
2022-10-05T09:29:45.634Z,1.90
2022-10-05T09:32:50.314Z,1.58
2022-10-05T09:35:43.133Z,1.63
2022-10-05T09:38:16.718Z,1.70
2022-10-05T09:41:24.095Z,1.60
2022-10-05T09:44:40.430Z,1.30
2022-10-05T09:47:31.537Z,1.65
2022-10-05T09:50:31.629Z,1.77
2022-10-05T09:53:42.875Z,1.33
2022-10-05T09:56:43.832Z,1.48
2022-10-05T10:00:01.015Z,1.10
2022-10-05T10:02:55.176Z,1.30
2022-10-05T10:05:57.085Z,1.65
2022-10-05T10:08:42.360Z,1.50
2022-10-05T10:11:30.430Z,1.60
2022-10-05T10:14:37.013Z,1.63
2022-10-05T10:17:22.121Z,1.40
2022-10-05T10:20:16.349Z,1.60
2022-10-05T10:23:21.019Z,1.90
2022-10-05T10:26:27.270Z,2.10
2022-10-05T10:29:19.655Z,2.10
2022-10-05T10:32:02.769Z,2.28
2022-10-05T10:35:12.302Z,2.20
2022-10-05T10:38:17.435Z,1.80
2022-10-05T10:41:05.244Z,2.07
2022-10-05T10:44:02.180Z,2.10
2022-10-05T10:46:40.358Z,2.40
2022-10-05T10:49:22.495Z,2.08
2022-10-05T10:52:22.363Z,1.70
2022-10-05T10:55:07.866Z,2.25
2022-10-05T10:57:54.932Z,2.00
2022-10-05T11:00:42.064Z,1.90
2022-10-05T11:03:52.213Z,2.25
2022-10-05T11:06:51.725Z,2.10
2022-10-05T11:09:46.058Z,2.45
2022-10-05T11:12:44.727Z,3.00
2022-10-05T11:15:40.246Z,2.20
2022-10-05T11:18:16.581Z,2.75
2022-10-05T11:21:17.282Z,2.40
2022-10-05T11:24:10.277Z,2.45
2022-10-05T11:26:51.390Z,2.60
2022-10-05T11:29:44.861Z,2.20
2022-10-05T11:32:41.115Z,2.20
2022-10-05T11:35:27.285Z,2.30
2022-10-05T11:38:33.568Z,2.33
2022-10-05T11:41:27.986Z,2.38
2022-10-05T11:44:29.451Z,2.42
2022-10-05T11:47:04.121Z,2.70
2022-10-05T11:49:42.362Z,2.60
2022-10-05T11:52:16.664Z,2.72
2022-10-05T11:55:20.401Z,2.75
2022-10-05T11:57:53.200Z,2.50
2022-10-05T12:00:23.449Z,3.10
2022-10-05T12:03:25.163Z,2.53
2022-10-05T12:06:12.215Z,2.60
2022-10-05T12:08:51.078Z,2.60
2022-10-05T12:11:41.667Z,2.58
2022-10-05T12:14:18.074Z,2.78
2022-10-05T12:16:51.985Z,2.65
2022-10-05T12:19:27.201Z,2.42
2022-10-05T12:22:03.816Z,2.90
2022-10-05T12:25:07.681Z,2.50
2022-10-05T12:27:46.014Z,2.90
2022-10-05T12:30:23.871Z,2.50
2022-10-05T12:33:02.509Z,2.80
2022-10-05T12:35:47.985Z,2.60
2022-10-05T12:38:24.883Z,2.35
2022-10-05T12:41:05.142Z,2.70
2022-10-05T12:43:43.106Z,2.60
2022-10-05T12:46:19.897Z,2.53
2022-10-05T12:49:10.398Z,2.55
2022-10-05T12:51:43.528Z,2.80
2022-10-05T12:54:23.164Z,2.70
2022-10-05T12:56:55.747Z,2.50
2022-10-05T12:59:41.104Z,2.70
2022-10-05T13:02:20.036Z,2.60
2022-10-05T13:04:52.729Z,2.60
2022-10-05T13:07:45.951Z,2.55
2022-10-05T13:10:28.150Z,2.30
2022-10-05T13:13:10.190Z,2.60
2022-10-05T13:15:47.057Z,2.80
2022-10-05T13:18:22.812Z,2.30
2022-10-05T13:21:03.915Z,2.70
2022-10-05T13:23:46.690Z,2.60
2022-10-05T13:26:28.851Z,2.83
2022-10-05T13:29:24.072Z,2.25
2022-10-05T13:31:56.452Z,2.47
2022-10-05T13:34:32.809Z,2.20
2022-10-05T13:37:27.233Z,2.42
2022-10-05T13:40:17.321Z,2.60
2022-10-05T13:43:00.031Z,2.40
2022-10-05T13:45:35.868Z,2.33
2022-10-05T13:48:15.869Z,2.80
2022-10-05T13:50:52.085Z,2.10
2022-10-05T13:53:28.331Z,2.63
2022-10-05T13:56:01.195Z,1.97
2022-10-05T13:58:44.007Z,2.17
2022-10-05T14:01:32.834Z,1.98
2022-10-05T14:04:24.700Z,2.40
2022-10-05T14:06:57.312Z,2.28
2022-10-05T14:09:30.799Z,1.70
2022-10-05T14:12:14.897Z,1.80
2022-10-05T14:15:31.851Z,1.80
2022-10-05T14:18:28.615Z,1.70
2022-10-05T14:21:48.015Z,1.85
2022-10-05T14:24:42.343Z,1.80
2022-10-05T14:27:21.432Z,1.90
2022-10-05T14:29:58.309Z,1.80
2022-10-05T14:32:31.412Z,1.90
2022-10-05T14:35:14.742Z,2.30
2022-10-05T14:37:51.111Z,2.40
2022-10-05T14:40:26.434Z,2.40
2022-10-05T14:42:55.068Z,2.15
2022-10-05T14:45:25.061Z,1.95
2022-10-05T14:48:00.177Z,2.33
2022-10-05T14:50:29.757Z,2.30
2022-10-05T14:53:17.469Z,2.00
2022-10-05T14:56:05.231Z,1.77
2022-10-05T14:58:46.513Z,2.00
2022-10-05T15:01:22.413Z,2.00
2022-10-05T15:04:03.275Z,2.10
2022-10-05T15:06:36.321Z,2.10
2022-10-05T15:09:31.783Z,1.63
2022-10-05T15:12:02.813Z,1.80
2022-10-05T15:14:33.255Z,2.20
2022-10-05T15:17:04.210Z,1.77
2022-10-05T15:19:44.753Z,1.90
2022-10-05T15:22:26.227Z,2.20
2022-10-05T15:25:03.801Z,1.80
2022-10-05T15:27:44.750Z,1.65
2022-10-05T15:30:15.280Z,2.20
2022-10-05T15:32:57.447Z,1.83
2022-10-05T15:35:56.093Z,2.03
2022-10-05T15:38:26.518Z,2.00
2022-10-05T15:41:03.301Z,1.70
2022-10-05T15:43:46.894Z,1.40
2022-10-05T15:46:19.244Z,2.00
2022-10-05T15:48:55.216Z,1.80
2022-10-05T15:51:41.798Z,2.00
2022-10-05T15:54:36.320Z,2.47
2022-10-05T15:57:10.433Z,1.90
2022-10-05T15:59:47.098Z,1.90
2022-10-05T16:02:20.605Z,2.20
2022-10-05T16:04:59.991Z,1.73
2022-10-05T16:07:57.015Z,2.08
2022-10-05T16:10:25.748Z,1.92
2022-10-05T16:13:06.542Z,2.05
2022-10-05T16:15:42.645Z,1.83
2022-10-05T16:18:31.218Z,1.70
2022-10-05T16:21:11.133Z,2.50
2022-10-05T16:23:53.782Z,1.90
2022-10-05T16:26:32.581Z,2.00
2022-10-05T16:29:06.294Z,2.22
2022-10-05T16:31:46.496Z,1.98
2022-10-05T16:34:28.568Z,2.10
2022-10-05T16:37:04.421Z,2.10
2022-10-05T16:39:50.559Z,2.23
2022-10-05T16:42:35.182Z,2.10
2022-10-05T16:45:15.910Z,2.05
2022-10-05T16:47:47.851Z,2.10
2022-10-05T16:50:24.424Z,2.40
2022-10-05T16:52:58.488Z,2.10
2022-10-05T16:55:35.593Z,1.85
2022-10-05T16:58:07.141Z,2.20
2022-10-05T17:00:51.598Z,1.90
2022-10-05T17:03:39.972Z,2.30
2022-10-05T17:06:41.578Z,2.10
2022-10-05T17:09:40.441Z,2.20
2022-10-05T17:12:27.857Z,2.13
2022-10-05T17:15:10.790Z,2.13
2022-10-05T17:17:53.124Z,2.30
2022-10-05T17:20:32.654Z,2.10
2022-10-05T17:23:17.147Z,2.25
2022-10-05T17:25:49.762Z,2.45
2022-10-05T17:28:24.777Z,2.30
2022-10-05T17:31:14.801Z,2.00
2022-10-05T17:34:26.232Z,2.47
2022-10-05T17:36:59.685Z,2.40
2022-10-05T17:39:49.368Z,2.53
2022-10-05T17:42:48.903Z,2.20
2022-10-05T17:45:53.900Z,2.40
2022-10-05T17:49:07.703Z,2.20
2022-10-05T17:52:16.550Z,2.80
2022-10-05T17:55:30.590Z,2.10
2022-10-05T17:58:02.009Z,2.50
2022-10-05T18:00:40.701Z,2.60
2022-10-05T18:03:36.193Z,2.33
2022-10-05T18:06:32.081Z,2.50
2022-10-05T18:09:37.639Z,2.33
2022-10-05T18:12:15.269Z,2.35
2022-10-05T18:14:57.519Z,2.17
2022-10-05T18:17:48.627Z,2.30
2022-10-05T18:20:38.047Z,2.47
2022-10-05T18:23:40.225Z,2.70
2022-10-05T18:26:20.807Z,2.30
2022-10-05T18:29:13.664Z,2.35
2022-10-05T18:31:52.909Z,2.90
2022-10-05T18:34:31.715Z,3.15
2022-10-05T18:37:15.484Z,2.70
2022-10-05T18:40:00.390Z,2.85
2022-10-05T18:42:38.062Z,2.90
2022-10-05T18:45:21.516Z,3.25
2022-10-05T18:47:59.592Z,3.05
2022-10-05T18:50:31.972Z,3.70
2022-10-05T18:53:15.351Z,3.05
2022-10-05T18:55:47.509Z,3.25
2022-10-05T18:58:23.859Z,3.03
2022-10-05T19:01:03.528Z,3.60
2022-10-05T19:03:40.444Z,3.05
2022-10-05T19:06:17.323Z,2.90
2022-10-05T19:08:56.248Z,2.17
2022-10-05T19:11:31.796Z,2.10
2022-10-05T19:14:10.356Z,1.70
2022-10-05T19:16:54.981Z,1.60
2022-10-05T19:19:50.122Z,1.50
2022-10-05T19:22:27.337Z,1.30
2022-10-05T19:25:17.081Z,1.10
2022-10-05T19:27:55.465Z,1.23
2022-10-05T19:30:27.141Z,1.20
2022-10-05T19:33:08.305Z,1.45
2022-10-05T19:35:48.346Z,1.30
2022-10-05T19:38:25.887Z,1.90
2022-10-05T19:41:01.252Z,1.40
2022-10-05T19:43:43.506Z,1.13
2022-10-05T19:46:21.080Z,1.20
2022-10-05T19:48:51.220Z,1.30
2022-10-05T19:51:30.375Z,1.48
2022-10-05T19:54:02.113Z,1.40
2022-10-05T19:56:34.878Z,1.10
2022-10-05T19:59:14.116Z,1.50
2022-10-05T20:01:49.071Z,1.30
2022-10-05T20:04:33.158Z,1.27
2022-10-05T20:07:02.213Z,1.50
2022-10-05T20:09:30.909Z,1.80
2022-10-05T20:12:00.867Z,2.10
2022-10-05T20:14:31.895Z,1.77
2022-10-05T20:17:35.749Z,1.70
2022-10-05T20:20:36.243Z,1.90
2022-10-05T20:23:24.313Z,2.47
2022-10-05T20:26:11.003Z,2.53
2022-10-05T20:28:40.465Z,2.00
2022-10-05T20:31:08.938Z,1.80
2022-10-05T20:33:36.865Z,1.50
2022-10-05T20:36:05.172Z,1.15
2022-10-05T20:38:40.613Z,0.90
2022-10-05T20:41:09.171Z,0.80
2022-10-05T20:43:39.201Z,1.10
2022-10-05T20:46:08.633Z,1.20
2022-10-05T20:48:36.618Z,0.93
2022-10-05T20:51:04.549Z,0.85
2022-10-05T20:53:32.830Z,0.80
2022-10-05T20:56:02.434Z,0.73
2022-10-05T20:58:30.909Z,0.80
2022-10-05T21:01:18.360Z,0.75
2022-10-05T21:03:47.927Z,0.95
2022-10-05T21:06:15.958Z,0.90
2022-10-05T21:08:44.096Z,0.70
2022-10-05T21:11:12.138Z,0.82
2022-10-05T21:13:44.615Z,0.90
2022-10-05T21:16:13.459Z,1.00
2022-10-05T21:18:41.896Z,0.80
2022-10-05T21:21:11.786Z,0.80
2022-10-05T21:23:39.693Z,0.80
2022-10-05T21:26:07.944Z,0.70
2022-10-05T21:28:35.908Z,0.70
2022-10-05T21:31:03.845Z,0.70
2022-10-05T21:33:31.956Z,0.80
2022-10-05T21:36:00.193Z,0.85
2022-10-05T21:38:30.196Z,1.00
2022-10-05T21:40:58.453Z,1.60
2022-10-05T21:43:26.962Z,0.90
2022-10-05T21:45:56.403Z,1.30
2022-10-05T21:48:26.011Z,1.00
2022-10-05T21:50:54.266Z,1.00
2022-10-05T21:53:27.402Z,1.00
2022-10-05T21:55:59.648Z,1.20
2022-10-05T21:58:31.450Z,1.20
2022-10-05T22:00:59.558Z,1.10
2022-10-05T22:03:27.541Z,1.38
2022-10-05T22:05:55.544Z,1.20
2022-10-05T22:08:27.130Z,1.67
2022-10-05T22:10:57.373Z,2.08
2022-10-05T22:13:26.810Z,1.85
2022-10-05T22:15:56.208Z,1.73
2022-10-05T22:18:26.107Z,2.05
2022-10-05T22:20:54.440Z,2.10
2022-10-05T22:23:22.419Z,2.00
2022-10-05T22:25:50.621Z,1.80
2022-10-05T22:28:19.973Z,1.52
2022-10-05T22:30:47.944Z,2.70
2022-10-05T22:33:15.787Z,2.20
2022-10-05T22:35:43.818Z,1.98
2022-10-05T22:38:11.753Z,2.07
2022-10-05T22:40:39.629Z,2.10
2022-10-05T22:43:07.591Z,1.70
2022-10-05T22:45:36.883Z,1.80
2022-10-05T22:48:05.005Z,2.10
2022-10-05T22:50:32.930Z,2.30
2022-10-05T22:53:00.908Z,2.10
2022-10-05T22:55:29.535Z,2.30
2022-10-05T22:57:57.437Z,1.80
2022-10-05T23:00:40.375Z,2.00
2022-10-05T23:03:16.375Z,2.53
2022-10-05T23:05:44.273Z,2.20
2022-10-05T23:08:12.399Z,2.15
2022-10-05T23:10:40.321Z,3.08
2022-10-05T23:13:08.684Z,2.20
2022-10-05T23:15:36.647Z,2.35
2022-10-05T23:18:04.700Z,2.30
2022-10-05T23:20:33.998Z,2.42
2022-10-05T23:23:01.932Z,2.50
2022-10-05T23:25:29.835Z,2.83
2022-10-05T23:27:57.796Z,2.60
2022-10-05T23:30:25.848Z,2.20
2022-10-05T23:32:53.762Z,2.07
2022-10-05T23:35:21.673Z,2.55
2022-10-05T23:37:51.117Z,2.33
2022-10-05T23:40:19.404Z,2.30
2022-10-05T23:42:47.613Z,2.40
2022-10-05T23:45:15.669Z,2.05
2022-10-05T23:47:43.686Z,2.00
2022-10-05T23:50:11.597Z,2.28
2022-10-05T23:52:39.508Z,2.10
2022-10-05T23:55:09.498Z,2.60
2022-10-05T23:57:38.286Z,2.22
